SWA2953 KLAS-KORD
Flight info
| Callsign | SWA2953 |
|---|---|
| Flight time | N/A |
| Altitude | 33000 |
| Route | GIDGT3 TUKRR PUB/N0462F350 SLN J96 IRK SHAIN2 |
| Aircraft | B738/M-SDE2E3FGHIRWXY/LB1 |
Departure
| Time | N/A |
|---|---|
| Airport | Harry Reid International Airport (KLAS) |
Arrival
| Time | 2026-05-08 00:38 |
|---|---|
| Airport | Chicago O'Hare International Airport (KORD) |
| Time | Latitude | Longitude | Altitude | Speed | Heading |
|---|---|---|---|---|---|
| 2026-05-08 00:27 | 42.04812 | -87.86864 | 4402 ft | 230 kts | 277° |
| 2026-05-08 00:28 | 42.04925 | -87.88957 | 4262 ft | 222 kts | 276° |
| 2026-05-08 00:28 | 42.05021 | -87.91003 | 4121 ft | 214 kts | 276° |
| 2026-05-08 00:28 | 42.05108 | -87.92946 | 4031 ft | 205 kts | 276° |
| 2026-05-08 00:28 | 42.05192 | -87.94852 | 4022 ft | 205 kts | 276° |
| 2026-05-08 00:29 | 42.05277 | -87.96777 | 4024 ft | 204 kts | 276° |
| 2026-05-08 00:29 | 42.05359 | -87.98678 | 4028 ft | 204 kts | 276° |
| 2026-05-08 00:29 | 42.05439 | -88.00563 | 4019 ft | 204 kts | 276° |
| 2026-05-08 00:29 | 42.05517 | -88.02479 | 4017 ft | 205 kts | 276° |
| 2026-05-08 00:30 | 42.05596 | -88.04372 | 4014 ft | 199 kts | 276° |
| 2026-05-08 00:30 | 42.05672 | -88.06222 | 4017 ft | 197 kts | 276° |
| 2026-05-08 00:30 | 42.05745 | -88.08049 | 4022 ft | 198 kts | 276° |
| 2026-05-08 00:30 | 42.05823 | -88.09904 | 4015 ft | 197 kts | 276° |
| 2026-05-08 00:31 | 42.05901 | -88.11750 | 4014 ft | 198 kts | 275° |
| 2026-05-08 00:31 | 42.05891 | -88.13609 | 4014 ft | 197 kts | 271° |
| 2026-05-08 00:31 | 42.05828 | -88.15435 | 4015 ft | 199 kts | 270° |
| 2026-05-08 00:31 | 42.05781 | -88.17295 | 4015 ft | 197 kts | 271° |
| 2026-05-08 00:32 | 42.05740 | -88.19138 | 4015 ft | 198 kts | 270° |
| 2026-05-08 00:32 | 42.05330 | -88.20923 | 4012 ft | 208 kts | 238° |
| 2026-05-08 00:32 | 42.04084 | -88.21948 | 4015 ft | 221 kts | 196° |
| 2026-05-08 00:32 | 42.02541 | -88.22152 | 4014 ft | 226 kts | 186° |
| 2026-05-08 00:33 | 42.00985 | -88.21770 | 4007 ft | 230 kts | 155° |
| 2026-05-08 00:33 | 41.99748 | -88.20399 | 4017 ft | 234 kts | 134° |
| 2026-05-08 00:33 | 41.98665 | -88.18836 | 4013 ft | 223 kts | 135° |
| 2026-05-08 00:33 | 41.97590 | -88.17397 | 4023 ft | 210 kts | 134° |
| 2026-05-08 00:34 | 41.96728 | -88.15820 | 4001 ft | 211 kts | 111° |
| 2026-05-08 00:34 | 41.96518 | -88.13895 | 3792 ft | 208 kts | 87° |
| 2026-05-08 00:34 | 41.96510 | -88.11946 | 3470 ft | 208 kts | 88° |
| 2026-05-08 00:34 | 41.96488 | -88.10039 | 3184 ft | 204 kts | 88° |
| 2026-05-08 00:35 | 41.96481 | -88.08159 | 2905 ft | 198 kts | 86° |
| 2026-05-08 00:35 | 41.96487 | -88.06333 | 2629 ft | 190 kts | 86° |
| 2026-05-08 00:35 | 41.96495 | -88.04628 | 2383 ft | 176 kts | 86° |
| 2026-05-08 00:35 | 41.96501 | -88.03030 | 2151 ft | 170 kts | 86° |
| 2026-05-08 00:36 | 41.96511 | -88.01438 | 1919 ft | 168 kts | 88° |
| 2026-05-08 00:36 | 41.96519 | -87.99887 | 1694 ft | 168 kts | 88° |
| 2026-05-08 00:36 | 41.96528 | -87.98320 | 1457 ft | 165 kts | 88° |
| 2026-05-08 00:36 | 41.96550 | -87.96802 | 1273 ft | 160 kts | 88° |
| 2026-05-08 00:37 | 41.96566 | -87.95346 | 1080 ft | 157 kts | 89° |
| 2026-05-08 00:37 | 41.96569 | -87.93878 | 843 ft | 157 kts | 90° |
| 2026-05-08 00:37 | 41.96571 | -87.92431 | 679 ft | 149 kts | 90° |
| 2026-05-08 00:38 | 41.96574 | -87.90725 | 664 ft | 34 kts | 86° |
| 2026-05-08 00:38 | 41.96640 | -87.90437 | 663 ft | 25 kts | 62° |
| 2026-05-08 00:38 | 41.96724 | -87.90227 | 660 ft | 21 kts | 66° |
| 2026-05-08 00:38 | 41.96741 | -87.90027 | 656 ft | 22 kts | 89° |
| 2026-05-08 00:39 | 41.96741 | -87.89799 | 651 ft | 25 kts | 90° |
| 2026-05-08 00:39 | 41.96741 | -87.89603 | 649 ft | 14 kts | 90° |
| 2026-05-08 00:39 | 41.96744 | -87.89488 | 649 ft | 13 kts | 72° |
| 2026-05-08 00:39 | 41.96827 | -87.89438 | 651 ft | 14 kts | 359° |
| 2026-05-08 00:40 | 41.96936 | -87.89439 | 653 ft | 16 kts | 359° |
| 2026-05-08 00:40 | 41.97052 | -87.89441 | 654 ft | 17 kts | 0° |
| 2026-05-08 00:40 | 41.97176 | -87.89439 | 654 ft | 16 kts | 1° |
| 2026-05-08 00:40 | 41.97288 | -87.89436 | 654 ft | 16 kts | 1° |
| 2026-05-08 00:41 | 41.97410 | -87.89432 | 654 ft | 18 kts | 0° |
| 2026-05-08 00:41 | 41.97471 | -87.89432 | 654 ft | 0 kts | 360° |
| 2026-05-08 00:41 | 41.97494 | -87.89432 | 653 ft | 5 kts | 359° |
| 2026-05-08 00:41 | 41.97542 | -87.89433 | 653 ft | 7 kts | 359° |
| 2026-05-08 00:42 | 41.97581 | -87.89411 | 653 ft | 7 kts | 58° |
| 2026-05-08 00:42 | 41.97594 | -87.89348 | 651 ft | 6 kts | 75° |
| 2026-05-08 00:42 | 41.97609 | -87.89285 | 651 ft | 6 kts | 70° |
| 2026-05-08 00:42 | 41.97616 | -87.89258 | 651 ft | 0 kts | 70° |
| 2026-05-08 00:43 | 41.97617 | -87.89253 | 651 ft | 0 kts | 70° |